createdAt,value
2018-10-05T00:00:07.438Z,6.50
2018-10-05T00:02:34.653Z,6.63
2018-10-05T00:05:01.909Z,7.43
2018-10-05T00:07:29.500Z,7.77
2018-10-05T00:09:56.795Z,7.93
2018-10-05T00:12:24.025Z,7.17
2018-10-05T00:14:51.248Z,7.37
2018-10-05T00:17:18.480Z,7.37
2018-10-05T00:19:45.866Z,7.63
2018-10-05T00:22:13.094Z,7.57
2018-10-05T00:24:40.312Z,7.33
2018-10-05T00:27:07.501Z,7.33
2018-10-05T00:29:34.714Z,7.33
2018-10-05T00:32:02.001Z,7.00
2018-10-05T00:34:29.240Z,7.03
2018-10-05T00:36:56.693Z,7.03
2018-10-05T00:39:23.908Z,7.63
2018-10-05T00:41:51.121Z,7.87
2018-10-05T00:44:18.390Z,7.67
2018-10-05T00:46:45.642Z,7.80
2018-10-05T00:49:12.860Z,7.83
2018-10-05T00:51:40.092Z,7.37
2018-10-05T00:54:07.369Z,6.77
2018-10-05T00:56:34.794Z,7.13
2018-10-05T00:59:01.993Z,7.40
2018-10-05T01:01:29.256Z,6.70
2018-10-05T01:03:56.537Z,7.03
2018-10-05T01:06:23.757Z,7.07
2018-10-05T01:08:50.994Z,7.03
2018-10-05T01:11:18.296Z,6.90
2018-10-05T01:13:45.532Z,6.87
2018-10-05T01:16:12.757Z,7.13
2018-10-05T01:18:39.970Z,7.73
2018-10-05T01:21:07.198Z,7.27
2018-10-05T01:23:34.392Z,7.27
2018-10-05T01:26:01.588Z,7.00
2018-10-05T01:28:28.808Z,6.90
2018-10-05T01:30:56.049Z,6.57
2018-10-05T01:33:23.345Z,6.93
2018-10-05T01:35:50.617Z,7.07
2018-10-05T01:38:17.824Z,7.07
2018-10-05T01:40:45.080Z,6.93
2018-10-05T01:43:12.290Z,6.60
2018-10-05T01:45:39.526Z,6.90
2018-10-05T01:48:06.775Z,6.73
2018-10-05T01:50:34.005Z,7.07
2018-10-05T01:53:01.248Z,6.67
2018-10-05T01:55:28.455Z,7.93
2018-10-05T01:57:55.668Z,7.33
2018-10-05T02:00:22.936Z,6.53
2018-10-05T02:02:50.148Z,7.17
2018-10-05T02:05:17.377Z,6.47
2018-10-05T02:07:44.598Z,6.80
2018-10-05T02:10:11.820Z,7.10
2018-10-05T02:12:39.044Z,7.03
2018-10-05T02:15:06.241Z,6.50
2018-10-05T02:17:33.460Z,6.33
2018-10-05T02:20:00.662Z,6.63
2018-10-05T02:22:27.913Z,7.03
2018-10-05T02:24:55.129Z,6.40
2018-10-05T02:27:22.427Z,6.90
2018-10-05T02:29:49.627Z,7.67
2018-10-05T02:32:16.861Z,7.00
2018-10-05T02:34:44.084Z,8.30
2018-10-05T02:37:11.284Z,7.13
2018-10-05T02:39:38.493Z,7.77
2018-10-05T02:42:05.729Z,7.60
2018-10-05T02:44:32.884Z,7.13
2018-10-05T02:47:00.227Z,7.27
2018-10-05T02:49:27.465Z,7.37
2018-10-05T02:51:54.855Z,7.23
2018-10-05T02:54:22.045Z,7.20
2018-10-05T02:56:49.264Z,7.23
2018-10-05T02:59:16.500Z,6.17
2018-10-05T03:01:49.501Z,7.17
2018-10-05T03:04:16.712Z,7.23
2018-10-05T03:06:43.875Z,6.70
2018-10-05T03:09:11.072Z,6.20
2018-10-05T03:11:38.304Z,7.20
2018-10-05T03:14:05.606Z,6.73
2018-10-05T03:16:32.922Z,6.00
2018-10-05T03:19:00.129Z,6.80
2018-10-05T03:21:27.314Z,6.47
2018-10-05T03:23:54.761Z,6.77
2018-10-05T03:26:21.984Z,6.40
2018-10-05T03:28:49.307Z,6.83
2018-10-05T03:31:16.523Z,6.87
2018-10-05T03:33:43.788Z,6.90
2018-10-05T03:36:11.000Z,7.40
2018-10-05T03:38:38.225Z,7.27
2018-10-05T03:41:05.620Z,7.13
2018-10-05T03:43:32.941Z,7.27
2018-10-05T03:46:00.194Z,7.00
2018-10-05T03:48:27.469Z,7.27
2018-10-05T03:50:54.629Z,7.50
2018-10-05T03:53:21.900Z,7.40
2018-10-05T03:55:49.140Z,6.73
2018-10-05T03:58:16.389Z,6.87
2018-10-05T04:00:43.654Z,7.37
2018-10-05T04:03:10.831Z,7.20
2018-10-05T04:05:38.058Z,7.07
2018-10-05T04:08:05.214Z,7.37
2018-10-05T04:10:32.628Z,8.07
2018-10-05T04:12:59.879Z,7.80
2018-10-05T04:15:27.081Z,7.10
2018-10-05T04:17:54.379Z,7.00
2018-10-05T04:20:21.630Z,7.23
2018-10-05T04:22:48.916Z,6.73
2018-10-05T04:25:16.101Z,7.20
2018-10-05T04:27:43.340Z,7.27
2018-10-05T04:30:10.595Z,7.57
2018-10-05T04:32:37.857Z,7.97
2018-10-05T04:35:05.124Z,8.00
2018-10-05T04:37:32.355Z,7.93
2018-10-05T04:39:59.568Z,7.90
2018-10-05T04:42:26.830Z,6.90
2018-10-05T04:44:54.108Z,9.43
2018-10-05T04:47:21.358Z,9.30
2018-10-05T04:49:48.623Z,8.30
2018-10-05T04:52:15.853Z,7.90
2018-10-05T04:54:43.164Z,7.73
2018-10-05T04:57:10.397Z,8.53
2018-10-05T04:59:37.598Z,7.93
2018-10-05T05:02:04.864Z,8.50
2018-10-05T05:04:32.153Z,8.97
2018-10-05T05:06:59.492Z,9.90
2018-10-05T05:09:26.840Z,8.63
2018-10-05T05:11:54.138Z,8.40
2018-10-05T05:14:21.360Z,8.40
2018-10-05T05:16:48.808Z,8.47
2018-10-05T05:19:16.876Z,8.83
2018-10-05T05:21:44.040Z,9.03
2018-10-05T05:24:11.308Z,8.70
2018-10-05T05:26:38.561Z,7.40
2018-10-05T05:29:05.821Z,7.27
2018-10-05T05:31:33.028Z,8.43
2018-10-05T05:34:00.371Z,7.90
2018-10-05T05:36:27.592Z,8.53
2018-10-05T05:38:54.849Z,7.93
2018-10-05T05:41:22.148Z,8.13
2018-10-05T05:43:49.400Z,6.77
2018-10-05T05:46:16.656Z,8.00
2018-10-05T05:48:44.403Z,8.67
2018-10-05T05:51:11.785Z,8.30
2018-10-05T05:53:39.053Z,7.83
2018-10-05T05:56:06.310Z,7.93
2018-10-05T05:58:33.548Z,7.73
2018-10-05T06:01:05.396Z,8.13
2018-10-05T06:03:32.828Z,7.90
2018-10-05T06:06:00.176Z,9.27
2018-10-05T06:08:27.352Z,9.13
2018-10-05T06:10:54.612Z,10.60
2018-10-05T06:13:21.844Z,9.73
2018-10-05T06:15:49.127Z,10.80
2018-10-05T06:18:16.344Z,10.87
2018-10-05T06:20:43.619Z,12.10
2018-10-05T06:23:10.868Z,12.07
2018-10-05T06:25:38.106Z,12.20
2018-10-05T06:28:05.825Z,12.10
2018-10-05T06:30:33.135Z,12.00
2018-10-05T06:33:00.388Z,11.97
2018-10-05T06:35:27.648Z,10.80
2018-10-05T06:37:54.916Z,11.57
2018-10-05T06:40:24.970Z,12.00
2018-10-05T06:42:52.176Z,11.87
2018-10-05T06:45:19.400Z,11.30
2018-10-05T06:47:46.655Z,11.37
2018-10-05T06:50:13.912Z,9.90
2018-10-05T06:52:41.168Z,10.23
2018-10-05T06:55:08.452Z,10.67
2018-10-05T06:57:35.672Z,10.90
2018-10-05T07:00:02.976Z,11.07
2018-10-05T07:02:30.157Z,11.13
2018-10-05T07:04:57.410Z,10.30
2018-10-05T07:07:24.699Z,10.37
2018-10-05T07:09:51.913Z,10.60
2018-10-05T07:12:19.128Z,10.83
2018-10-05T07:14:46.838Z,10.80
2018-10-05T07:17:14.116Z,10.73
2018-10-05T07:19:41.406Z,10.83
2018-10-05T07:22:08.672Z,10.17
2018-10-05T07:24:35.963Z,10.13
2018-10-05T07:27:03.248Z,9.27
2018-10-05T07:29:30.459Z,10.73
2018-10-05T07:31:57.706Z,10.00
2018-10-05T07:34:24.956Z,10.53
2018-10-05T07:36:52.282Z,9.50
2018-10-05T07:39:19.457Z,9.60
2018-10-05T07:41:47.262Z,10.50
2018-10-05T07:44:14.432Z,10.30
2018-10-05T07:46:41.640Z,9.87
2018-10-05T07:49:08.896Z,9.07
2018-10-05T07:51:36.269Z,10.00
2018-10-05T07:54:03.436Z,10.60
2018-10-05T07:56:30.669Z,10.27
2018-10-05T07:58:57.893Z,10.43
2018-10-05T08:01:25.120Z,9.73
2018-10-05T08:03:52.348Z,10.93
2018-10-05T08:06:19.600Z,10.57
2018-10-05T08:08:46.825Z,10.30
2018-10-05T08:11:14.059Z,10.37
2018-10-05T08:13:41.285Z,10.83
2018-10-05T08:16:08.632Z,11.23
2018-10-05T08:18:35.829Z,10.03
2018-10-05T08:21:03.100Z,11.13
2018-10-05T08:23:30.297Z,9.90
2018-10-05T08:25:57.585Z,10.13
2018-10-05T08:28:24.781Z,9.80
2018-10-05T08:30:52.063Z,9.43
2018-10-05T08:33:19.301Z,9.20
2018-10-05T08:35:46.503Z,9.00
2018-10-05T08:38:13.756Z,8.57
2018-10-05T08:40:40.948Z,9.20
2018-10-05T08:43:08.188Z,8.10
2018-10-05T08:45:35.418Z,8.43
2018-10-05T08:48:02.644Z,7.83
2018-10-05T08:50:29.920Z,9.40
2018-10-05T08:52:57.164Z,8.93
2018-10-05T08:55:24.384Z,7.90
2018-10-05T08:57:51.645Z,8.87
2018-10-05T09:00:18.885Z,7.93
2018-10-05T09:02:46.113Z,8.20
2018-10-05T09:05:13.601Z,7.97
2018-10-05T09:07:40.863Z,8.47
2018-10-05T09:10:08.090Z,8.40
2018-10-05T09:12:35.338Z,7.73
2018-10-05T09:15:02.824Z,7.53
2018-10-05T09:17:30.066Z,8.67
2018-10-05T09:19:57.260Z,8.40
2018-10-05T09:22:24.683Z,7.65
2018-10-05T09:24:51.953Z,7.70
2018-10-05T09:27:19.195Z,8.40
2018-10-05T09:29:46.443Z,7.60
2018-10-05T09:32:13.666Z,8.20
2018-10-05T09:34:40.868Z,6.92
2018-10-05T09:37:08.548Z,8.15
2018-10-05T09:39:35.932Z,8.18
2018-10-05T09:42:03.413Z,6.65
2018-10-05T09:44:30.628Z,6.78
2018-10-05T09:46:57.828Z,6.45
2018-10-05T09:49:25.122Z,6.80
2018-10-05T09:51:52.365Z,5.83
2018-10-05T09:54:19.612Z,5.80
2018-10-05T09:56:46.815Z,6.17
2018-10-05T09:59:14.050Z,5.42
2018-10-05T10:01:46.938Z,5.97
2018-10-05T10:04:14.185Z,5.95
2018-10-05T10:06:41.412Z,6.20
2018-10-05T10:09:09.040Z,5.85
2018-10-05T10:11:36.285Z,6.03
2018-10-05T10:16:53.449Z,5.70
2018-10-05T10:19:20.692Z,5.40
2018-10-05T10:21:47.946Z,5.70
2018-10-05T10:24:15.205Z,5.15
2018-10-05T10:26:42.454Z,5.78
2018-10-05T10:29:09.975Z,5.33
2018-10-05T10:31:37.091Z,4.90
2018-10-05T10:34:04.391Z,5.30
2018-10-05T10:36:31.672Z,5.30
2018-10-05T10:38:58.846Z,5.17
2018-10-05T10:41:26.081Z,4.90
2018-10-05T10:43:53.354Z,5.37
2018-10-05T10:46:20.600Z,5.05
2018-10-05T10:48:47.900Z,4.37
2018-10-05T10:51:15.163Z,4.12
2018-10-05T10:53:42.391Z,4.00
2018-10-05T10:56:09.738Z,4.35
2018-10-05T10:58:36.975Z,4.40
2018-10-05T11:01:04.312Z,3.47
2018-10-05T11:03:31.497Z,4.70
2018-10-05T11:05:58.816Z,4.83
2018-10-05T11:08:25.973Z,4.15
2018-10-05T11:10:53.250Z,3.92
2018-10-05T11:13:20.485Z,3.17
2018-10-05T11:15:47.681Z,4.05
2018-10-05T11:18:14.900Z,3.33
2018-10-05T11:20:42.170Z,3.47
2018-10-05T11:23:09.442Z,3.83
2018-10-05T11:25:36.702Z,3.37
2018-10-05T11:28:04.045Z,3.58
2018-10-05T11:30:31.305Z,3.70
2018-10-05T11:32:58.616Z,3.40
2018-10-05T11:35:25.887Z,2.98
2018-10-05T11:37:53.163Z,2.98
2018-10-05T11:40:20.449Z,3.00
2018-10-05T11:42:48.471Z,3.83
2018-10-05T11:45:15.780Z,3.27
2018-10-05T11:47:42.978Z,3.12
2018-10-05T11:50:10.431Z,2.92
2018-10-05T11:52:37.737Z,2.72
2018-10-05T11:55:05.020Z,2.75
2018-10-05T11:57:32.359Z,2.80
2018-10-05T11:59:59.663Z,2.92
2018-10-05T12:02:26.986Z,3.00
2018-10-05T12:04:54.268Z,2.92
2018-10-05T12:07:21.575Z,2.77
2018-10-05T12:09:48.777Z,2.95
2018-10-05T12:12:16.093Z,2.65
2018-10-05T12:14:43.358Z,3.10
2018-10-05T12:17:10.609Z,2.40
2018-10-05T12:19:37.893Z,2.52
2018-10-05T12:22:05.159Z,2.80
2018-10-05T12:24:32.437Z,2.20
2018-10-05T12:26:59.751Z,2.10
2018-10-05T12:29:27.033Z,2.45
2018-10-05T12:31:54.330Z,2.33
2018-10-05T12:34:21.585Z,2.52
2018-10-05T12:36:48.764Z,2.10
2018-10-05T12:39:16.059Z,2.40
2018-10-05T12:41:43.317Z,2.70
2018-10-05T12:44:10.634Z,2.45
2018-10-05T12:46:37.944Z,2.90
2018-10-05T12:49:05.287Z,2.42
2018-10-05T12:51:32.569Z,2.50
2018-10-05T12:53:59.866Z,2.10
2018-10-05T12:56:27.159Z,2.67
2018-10-05T12:58:54.463Z,2.55
2018-10-05T13:01:21.715Z,2.40
2018-10-05T13:03:49.000Z,2.30
2018-10-05T13:06:16.297Z,2.25
2018-10-05T13:08:43.642Z,2.30
2018-10-05T13:11:10.961Z,2.20
2018-10-05T13:13:38.238Z,2.10
2018-10-05T13:16:05.830Z,1.87
2018-10-05T13:18:33.105Z,1.77
2018-10-05T13:21:00.356Z,2.15
2018-10-05T13:23:27.672Z,1.80
2018-10-05T13:25:54.921Z,1.92
2018-10-05T13:28:22.153Z,2.10
2018-10-05T13:30:49.448Z,1.90
2018-10-05T13:33:16.746Z,2.05
2018-10-05T13:35:44.006Z,2.00
2018-10-05T13:38:11.305Z,2.15
2018-10-05T13:40:38.617Z,2.00
2018-10-05T13:43:05.938Z,2.15
2018-10-05T13:45:33.253Z,1.60
2018-10-05T13:48:00.529Z,1.80
2018-10-05T13:50:27.722Z,1.85
2018-10-05T13:52:55.031Z,2.42
2018-10-05T13:55:22.603Z,1.80
2018-10-05T13:57:49.893Z,1.92
2018-10-05T14:00:17.145Z,1.80
2018-10-05T14:02:44.428Z,1.85
2018-10-05T14:05:11.722Z,2.12
2018-10-05T14:07:38.993Z,2.08
2018-10-05T14:10:06.299Z,1.95
2018-10-05T14:12:33.557Z,2.10
2018-10-05T14:15:00.802Z,1.77
2018-10-05T14:17:28.087Z,1.55
2018-10-05T14:19:55.402Z,1.82
2018-10-05T14:22:22.690Z,1.77
2018-10-05T14:24:49.890Z,1.80
2018-10-05T14:27:17.150Z,1.80
2018-10-05T14:29:44.455Z,1.70
2018-10-05T14:32:11.787Z,1.82
2018-10-05T14:34:39.000Z,1.70
2018-10-05T14:37:06.263Z,1.70
2018-10-05T14:39:33.629Z,1.98
2018-10-05T14:42:00.897Z,2.02
2018-10-05T14:44:28.198Z,1.52
2018-10-05T14:46:55.405Z,1.50
2018-10-05T14:49:22.809Z,1.67
2018-10-05T14:51:50.007Z,1.60
2018-10-05T14:54:17.266Z,1.40
2018-10-05T14:56:44.605Z,1.87
2018-10-05T14:59:11.853Z,1.70
2018-10-05T15:01:39.134Z,1.92
2018-10-05T15:04:06.382Z,1.70
2018-10-05T15:06:33.554Z,1.80
2018-10-05T15:09:00.939Z,1.55
2018-10-05T15:11:28.174Z,1.60
2018-10-05T15:13:55.447Z,1.57
2018-10-05T15:16:22.695Z,1.80
2018-10-05T15:18:49.963Z,1.87
2018-10-05T15:21:17.349Z,2.00
2018-10-05T15:23:44.670Z,1.90
2018-10-05T15:26:11.918Z,1.70
2018-10-05T15:28:39.170Z,1.87
2018-10-05T15:31:06.420Z,1.77
2018-10-05T15:33:33.638Z,1.50
2018-10-05T15:36:00.846Z,1.85
2018-10-05T15:38:28.104Z,1.85
2018-10-05T15:40:55.396Z,1.85
2018-10-05T15:43:22.662Z,1.75
2018-10-05T15:45:49.926Z,1.60
2018-10-05T15:48:17.305Z,1.85
2018-10-05T15:50:44.562Z,1.60
2018-10-05T15:53:11.796Z,1.67
2018-10-05T15:55:39.026Z,2.70
2018-10-05T15:58:06.248Z,2.80
2018-10-05T16:00:33.489Z,2.20
2018-10-05T16:03:00.753Z,2.00
2018-10-05T16:05:28.052Z,1.90
2018-10-05T16:07:55.290Z,3.67
2018-10-05T16:10:22.515Z,4.20
2018-10-05T16:12:49.798Z,2.12
2018-10-05T16:15:16.991Z,2.08
2018-10-05T16:17:44.240Z,1.65
2018-10-05T16:20:11.542Z,1.95
2018-10-05T16:22:38.809Z,1.50
2018-10-05T16:25:06.073Z,1.95
2018-10-05T16:27:33.310Z,2.22
2018-10-05T16:30:00.563Z,2.00
2018-10-05T16:32:27.820Z,1.70
2018-10-05T16:34:55.085Z,1.50
2018-10-05T16:37:22.300Z,1.82
2018-10-05T16:39:49.509Z,2.02
2018-10-05T16:42:16.764Z,1.90
2018-10-05T16:44:44.011Z,2.12
2018-10-05T16:47:11.241Z,2.10
2018-10-05T16:49:38.513Z,2.20
2018-10-05T16:52:05.790Z,2.50
2018-10-05T16:54:33.066Z,2.05
2018-10-05T16:57:00.297Z,1.80
2018-10-05T16:59:27.550Z,2.00
2018-10-05T17:01:54.802Z,2.55
2018-10-05T17:04:22.076Z,2.42
2018-10-05T17:06:49.337Z,2.30
2018-10-05T17:09:16.608Z,2.37
2018-10-05T17:11:44.849Z,2.50
2018-10-05T17:14:12.049Z,2.20
2018-10-05T17:16:39.256Z,2.10
2018-10-05T17:19:06.712Z,2.52
2018-10-05T17:21:34.191Z,2.20
2018-10-05T17:24:01.530Z,2.30
2018-10-05T17:26:28.867Z,2.62
2018-10-05T17:28:56.166Z,2.23
2018-10-05T17:31:23.421Z,2.90
2018-10-05T17:33:50.742Z,2.50
2018-10-05T17:36:17.969Z,2.27
2018-10-05T17:38:45.280Z,2.43
2018-10-05T17:41:12.490Z,2.20
2018-10-05T17:43:39.673Z,2.57
2018-10-05T17:46:07.325Z,2.37
2018-10-05T17:48:34.609Z,3.00
2018-10-05T17:51:02.022Z,2.60
2018-10-05T17:53:29.285Z,2.70
2018-10-05T17:55:56.637Z,2.73
2018-10-05T17:58:23.812Z,3.37
2018-10-05T18:00:51.087Z,8.37
2018-10-05T18:03:18.299Z,7.43
2018-10-05T18:05:45.648Z,6.17
2018-10-05T18:08:12.977Z,4.07
2018-10-05T18:10:40.224Z,3.80
2018-10-05T18:13:07.601Z,3.10
2018-10-05T18:15:35.189Z,2.87
2018-10-05T18:18:02.421Z,2.93
2018-10-05T18:20:29.715Z,4.00
2018-10-05T18:22:56.975Z,3.20
2018-10-05T18:25:24.410Z,3.47
2018-10-05T18:27:51.828Z,2.97
2018-10-05T18:30:19.221Z,2.93
2018-10-05T18:32:46.570Z,2.90
2018-10-05T18:35:13.933Z,3.40
2018-10-05T18:37:41.157Z,5.23
2018-10-05T18:40:08.724Z,8.23
2018-10-05T18:42:35.992Z,5.53
2018-10-05T18:45:03.354Z,4.50
2018-10-05T18:47:30.614Z,4.50
2018-10-05T18:49:57.876Z,4.73
2018-10-05T18:52:25.116Z,4.33
2018-10-05T18:54:52.547Z,5.00
2018-10-05T18:57:21.189Z,4.87
2018-10-05T18:59:48.485Z,4.63
2018-10-05T19:02:16.418Z,7.20
2018-10-05T19:04:44.122Z,6.57
2018-10-05T19:07:11.434Z,5.53
2018-10-05T19:09:38.833Z,6.30
2018-10-05T19:12:06.278Z,6.80
2018-10-05T19:14:33.661Z,5.67
2018-10-05T19:17:01.061Z,5.40
2018-10-05T19:19:28.399Z,5.30
2018-10-05T19:21:55.774Z,5.30
2018-10-05T19:24:23.058Z,5.03
2018-10-05T19:26:50.558Z,5.23
2018-10-05T19:29:17.765Z,5.77
2018-10-05T19:31:45.038Z,6.00
2018-10-05T19:34:12.352Z,5.37
2018-10-05T19:36:39.726Z,5.30
2018-10-05T19:39:07.416Z,4.83
2018-10-05T19:41:34.791Z,5.70
2018-10-05T19:44:02.330Z,8.90
2018-10-05T19:46:32.635Z,9.97
2018-10-05T19:48:59.946Z,6.33
2018-10-05T19:51:27.391Z,5.90
2018-10-05T19:53:54.786Z,5.93
2018-10-05T19:56:22.057Z,6.00
2018-10-05T19:58:49.325Z,5.77
2018-10-05T20:01:16.615Z,6.17
2018-10-05T20:03:43.871Z,6.50
2018-10-05T20:06:11.260Z,6.33
2018-10-05T20:08:38.754Z,6.30
2018-10-05T20:11:06.668Z,8.67
2018-10-05T20:13:33.991Z,7.63
2018-10-05T20:16:01.291Z,7.80
2018-10-05T20:18:28.841Z,7.37
2018-10-05T20:20:56.093Z,7.00
2018-10-05T20:23:23.409Z,6.63
2018-10-05T20:25:50.714Z,7.10
2018-10-05T20:28:17.981Z,6.07
2018-10-05T20:30:45.327Z,5.33
2018-10-05T20:33:12.590Z,5.57
2018-10-05T20:35:39.857Z,5.47
2018-10-05T20:38:07.150Z,4.90
2018-10-05T20:40:34.396Z,6.47
2018-10-05T20:43:01.818Z,5.87
2018-10-05T20:45:29.115Z,6.00
2018-10-05T20:47:56.543Z,5.93
2018-10-05T20:50:23.845Z,6.27
2018-10-05T20:52:51.140Z,6.47
2018-10-05T20:55:18.356Z,5.73
2018-10-05T20:57:45.645Z,5.77
2018-10-05T21:00:12.895Z,4.90
2018-10-05T21:02:40.163Z,4.83
2018-10-05T21:05:07.450Z,5.03
2018-10-05T21:07:34.722Z,5.60
2018-10-05T21:10:03.459Z,5.67
2018-10-05T21:12:30.704Z,4.47
2018-10-05T21:14:57.996Z,5.27
2018-10-05T21:17:25.268Z,5.43
2018-10-05T21:19:52.509Z,5.87
2018-10-05T21:22:19.833Z,5.80
2018-10-05T21:24:47.008Z,5.73
2018-10-05T21:27:14.290Z,8.70
2018-10-05T21:29:41.529Z,7.53
2018-10-05T21:32:08.761Z,6.97
2018-10-05T21:34:36.033Z,6.13
2018-10-05T21:37:03.246Z,5.83
2018-10-05T21:39:30.461Z,6.70
2018-10-05T21:41:57.709Z,5.83
2018-10-05T21:44:24.969Z,6.67
2018-10-05T21:46:52.243Z,6.23
2018-10-05T21:49:19.465Z,5.93
2018-10-05T21:51:46.698Z,6.47
2018-10-05T21:54:13.922Z,6.60
2018-10-05T21:56:41.172Z,6.23
2018-10-05T21:59:08.400Z,6.60
2018-10-05T22:01:35.634Z,6.07
2018-10-05T22:04:02.966Z,6.17
2018-10-05T22:06:30.214Z,6.53
2018-10-05T22:08:57.511Z,6.33
2018-10-05T22:11:24.767Z,6.77
2018-10-05T22:13:51.997Z,5.80
2018-10-05T22:16:19.223Z,6.43
2018-10-05T22:18:46.488Z,6.07
2018-10-05T22:21:13.730Z,6.57
2018-10-05T22:23:41.006Z,7.13
2018-10-05T22:26:08.237Z,8.07
2018-10-05T22:28:35.617Z,7.90
2018-10-05T22:31:03.973Z,6.83
2018-10-05T22:33:31.271Z,6.50
2018-10-05T22:35:58.529Z,6.30
2018-10-05T22:38:25.790Z,9.50
2018-10-05T22:40:53.025Z,9.80
2018-10-05T22:43:20.237Z,9.23
2018-10-05T22:45:47.481Z,9.27
2018-10-05T22:48:14.700Z,7.87
2018-10-05T22:50:41.957Z,8.53
2018-10-05T22:53:09.227Z,7.70
2018-10-05T22:55:36.470Z,6.87
2018-10-05T22:58:03.728Z,6.90
2018-10-05T23:00:31.005Z,6.97
2018-10-05T23:02:58.255Z,7.70
2018-10-05T23:05:25.501Z,7.60
2018-10-05T23:07:52.738Z,7.63
2018-10-05T23:10:20.034Z,7.50
2018-10-05T23:12:47.262Z,8.23
2018-10-05T23:15:14.519Z,8.00
2018-10-05T23:17:41.743Z,8.17
2018-10-05T23:20:09.033Z,7.63
2018-10-05T23:22:36.286Z,7.57
2018-10-05T23:25:03.674Z,7.60
2018-10-05T23:27:30.906Z,7.27
2018-10-05T23:29:58.640Z,6.87
2018-10-05T23:32:25.849Z,7.40
2018-10-05T23:34:53.087Z,7.03
2018-10-05T23:37:20.345Z,7.50
2018-10-05T23:39:47.658Z,7.13
2018-10-05T23:42:14.912Z,8.40
2018-10-05T23:44:42.153Z,7.93
2018-10-05T23:47:09.462Z,8.60
2018-10-05T23:49:36.759Z,8.17
2018-10-05T23:52:41.061Z,7.90
2018-10-05T23:55:08.342Z,7.67
2018-10-05T23:57:36.271Z,7.40
